ITO weather

Hilo International Airport
Hilo, Hawaii, United States

Public forecast

Using degrees Fahrenheit for public forecast. Weather courtesy of forecast.io.

METAR (pilot weather report)

Retrieved 2019/03/26 03:53 UTC (39 minutes ago):

PHTO 260353Z 03005KT 10SM CLR 23/14 A3007

TAF (pilot weather forecast)

Forecast is more than 12 hours old.

Retrieved 2019/03/25 00:48 UTC (1 day ago):

TAF PHTO 252345Z 2600/2624 04010KT P6SM FEW030 SCT040 BKN050 FM260600 30006KT P6SM FEW035 SCT060 FM262100 02011KT P6SM FEW035 SCT050